Time;durP1;ratioP1;P1;durP2;ratioP2;P2;SDS_P1;SDS_P2;PMS_P1;PMS_P2;Temp;Humidity;BMP_temperature;BMP_pressure;BME280_temperature;BME280_humidity;BME280_pressure;Samples;Min_cycle;Max_cycle;Signal;HPM_P1;HPM_P2
2022/09/22 00:01:12;;;;;;;;;;;;;;;-142.75;100.00;78287.16;5074278;28;19912;-68
2022/09/22 00:03:39;;;;;;;;;;;;;;;-142.75;100.00;78300.97;5074240;28;19912;-68
2022/09/22 00:06:12;;;;;;;;;;;;;;;-142.75;100.00;78320.66;5074104;28;19924;-68
2022/09/22 00:08:39;;;;;;;;;;;;;;;-142.75;100.00;78326.56;5073851;28;20382;-68
2022/09/22 00:11:15;;;;;;;;;;;;;;;-142.75;100.00;78316.72;5073996;28;20283;-69
2022/09/22 00:13:42;;;;;;;;;;;;;;;-142.75;100.00;78310.81;5073895;28;20404;-68
2022/09/22 00:16:08;;;;;;;;;;;;;;;-142.75;100.00;78316.72;5073676;28;19979;-69
2022/09/22 00:18:33;;;;;;;;;;;;;;;-142.75;100.00;78302.94;5090053;22;19933;-69
2022/09/22 00:21:04;;;;;;;;;;;;;;;-142.75;100.00;78291.09;5033980;28;19925;-69
2022/09/22 00:23:30;;;;;;;;;;;;;;;-142.75;100.00;78289.13;5043790;28;19920;-69
2022/09/22 00:25:56;;;;;;;;;;;;;;;-142.75;100.00;78283.22;5046760;28;19913;-69
2022/09/22 00:28:21;;;;;;;;;;;;;;;-142.75;100.00;78283.22;5031739;28;20366;-69
2022/09/22 00:30:46;;;;;;;;;;;;;;;-142.75;100.00;78275.34;5033707;28;19952;-69
2022/09/22 00:33:12;;;;;;;;;;;;;;;-142.75;100.00;78277.31;5033671;28;19913;-69
2022/09/22 00:35:37;;;;;;;;;;;;;;;-142.75;100.00;78271.41;5033666;28;20391;-69
2022/09/22 00:38:04;;;;;;;;;;;;;;;-142.75;100.00;78310.81;5033305;28;19967;-69
2022/09/22 00:40:29;;;;;;;;;;;;;;;-142.75;100.00;78304.91;5033478;28;20379;-70
2022/09/22 00:43:10;;;;;;;;;;;;;;;-142.75;100.00;78306.88;5025294;28;19913;-69
2022/09/22 00:45:35;;;;;;;;;;;;;;;-142.75;100.00;78318.69;5033538;28;19964;-69
2022/09/22 00:48:00;;;;;;;;;;;;;;;-142.75;100.00;78308.84;5033182;28;19956;-69
2022/09/22 00:50:26;;;;;;;;;;;;;;;-142.75;100.00;78310.81;5032040;28;19951;-69
2022/09/22 00:52:54;;;;;;;;;;;;;;;-142.75;100.00;78306.88;5033407;28;19917;-69
2022/09/22 00:55:23;;;;;;;;;;;;;;;-142.75;100.00;78310.81;5033171;28;19984;-69
2022/09/22 00:57:49;;;;;;;;;;;;;;;-142.75;100.00;78310.81;5032800;28;19917;-69
2022/09/22 01:00:14;;;;;;;;;;;;;;;-142.75;100.00;78310.81;5033217;28;19940;-69
2022/09/22 01:02:40;;;;;;;;;;;;;;;-142.75;100.00;78299.00;5033188;28;19979;-70
2022/09/22 01:05:05;;;;;;;;;;;;;;;-142.75;100.00;78316.72;5033134;28;19921;-69
2022/09/22 01:07:31;;;;;;;;;;;;;;;-142.75;100.00;78302.94;5032874;28;19913;-69
2022/09/22 01:09:56;;;;;;;;;;;;;;;-142.75;100.00;78306.88;5033180;28;19958;-69
2022/09/22 01:12:23;;;;;;;;;;;;;;;-142.75;100.00;78297.00;5032933;28;19924;-70
2022/09/22 01:15:11;;;;;;;;;;;;;;;-142.75;100.00;78306.88;5032952;28;19921;-69
2022/09/22 01:17:52;;;;;;;;;;;;;;;-142.75;100.00;78302.94;5032394;28;19919;-69
2022/09/22 01:20:19;;;;;;;;;;;;;;;-142.75;100.00;78295.06;5026508;28;20437;-69
2022/09/22 01:22:47;;;;;;;;;;;;;;;-142.75;100.00;78291.09;5026464;28;20020;-69
2022/09/22 01:25:15;;;;;;;;;;;;;;;-142.75;100.00;78279.28;5032823;28;19979;-69
2022/09/22 01:27:48;;;;;;;;;;;;;;;-142.75;100.00;78279.28;5032362;28;20345;-69
2022/09/22 01:30:24;;;;;;;;;;;;;;;-142.75;100.00;78289.13;5032748;28;19924;-69
2022/09/22 01:33:05;;;;;;;;;;;;;;;-142.75;100.00;78281.25;5014988;28;19923;-70
2022/09/22 01:35:35;;;;;;;;;;;;;;;-142.75;100.00;78279.28;5032377;28;19968;-69
2022/09/22 01:38:04;;;;;;;;;;;;;;;-142.75;100.00;78283.22;5032330;28;19992;-69
2022/09/22 01:40:39;;;;;;;;;;;;;;;-142.75;100.00;78273.38;5032741;28;19917;-69
2022/09/22 01:43:13;;;;;;;;;;;;;;;-142.75;100.00;78277.31;5032585;28;20386;-69
2022/09/22 01:45:40;;;;;;;;;;;;;;;-142.75;100.00;78259.59;5032566;28;19913;-69
2022/09/22 01:48:26;;;;;;;;;;;;;;;-142.75;100.00;78251.72;5032154;28;19913;-69
2022/09/22 01:51:07;;;;;;;;;;;;;;;-142.75;100.00;78241.88;5032645;28;20016;-69
2022/09/22 01:53:35;;;;;;;;;;;;;;;-142.75;100.00;78247.78;5032408;28;19914;-70
2022/09/22 01:56:04;;;;;;;;;;;;;;;-142.75;100.00;78281.25;5032239;28;19913;-69
2022/09/22 01:58:33;;;;;;;;;;;;;;;-142.75;100.00;78263.53;5032015;28;19999;-69
2022/09/22 02:01:12;;;;;;;;;;;;;;;-142.75;100.00;78241.88;5032370;28;19913;-69
2022/09/22 02:03:44;;;;;;;;;;;;;;;-142.75;100.00;78234.00;5032271;28;20357;-69
2022/09/22 02:06:21;;;;;;;;;;;;;;;-142.75;100.00;78247.78;5032309;28;19999;-69
2022/09/22 02:08:53;;;;;;;;;;;;;;;-142.75;100.00;78241.88;5024595;28;19996;-71
2022/09/22 02:11:18;;;;;;;;;;;;;;;-142.75;100.00;78243.84;5022536;28;19932;-69
2022/09/22 02:13:45;;;;;;;;;;;;;;;-142.75;100.00;78228.09;5020450;28;20408;-69
2022/09/22 02:16:11;;;;;;;;;;;;;;;-142.75;100.00;78224.16;5029274;28;19925;-70
2022/09/22 02:18:36;;;;;;;;;;;;;;;-142.75;100.00;78230.06;5034919;28;19917;-69
2022/09/22 02:21:02;;;;;;;;;;;;;;;-142.75;100.00;78257.63;5032586;28;19913;-70
2022/09/22 02:23:28;;;;;;;;;;;;;;;-142.75;100.00;78291.09;5032896;28;20378;-69
2022/09/22 02:25:53;;;;;;;;;;;;;;;-142.75;100.00;78287.16;5032093;28;19964;-69
2022/09/22 02:28:21;;;;;;;;;;;;;;;-142.75;100.00;78302.94;5032230;28;20590;-69
2022/09/22 02:30:48;;;;;;;;;;;;;;;-142.75;100.00;78340.34;5032019;28;19913;-70
2022/09/22 02:33:13;;;;;;;;;;;;;;;-142.75;100.00;78346.25;5032103;28;19920;-69
2022/09/22 02:35:39;;;;;;;;;;;;;;;-142.75;100.00;78338.38;5024347;28;19917;-70
2022/09/22 02:38:07;;;;;;;;;;;;;;;-142.75;100.00;78369.88;5028039;28;20003;-69
2022/09/22 02:40:51;;;;;;;;;;;;;;;-142.75;100.00;78375.78;5031978;28;19920;-69
2022/09/22 02:43:16;;;;;;;;;;;;;;;-142.75;100.00;78377.75;5031969;28;19923;-69
2022/09/22 02:45:58;;;;;;;;;;;;;;;-142.75;100.00;78385.63;5031030;28;19917;-69
2022/09/22 02:48:26;;;;;;;;;;;;;;;-142.75;100.00;78389.56;5031471;28;19917;-69
2022/09/22 02:50:52;;;;;;;;;;;;;;;-142.75;100.00;78399.44;5033299;28;20382;-69
2022/09/22 02:53:18;;;;;;;;;;;;;;;-142.75;100.00;78409.28;5035444;28;19921;-70
2022/09/22 02:55:44;;;;;;;;;;;;;;;-142.75;100.00;78417.16;5035485;28;19924;-69
2022/09/22 02:58:09;;;;;;;;;;;;;;;-142.75;100.00;78425.03;5035145;28;20404;-69
2022/09/22 03:00:36;;;;;;;;;;;;;;;-142.75;100.00;78405.34;5035405;28;19952;-70
2022/09/22 03:03:01;;;;;;;;;;;;;;;-142.75;100.00;78407.31;5035323;28;19913;-70
2022/09/22 03:05:26;;;;;;;;;;;;;;;-142.75;100.00;78393.50;5035277;28;20127;-69
2022/09/22 03:07:51;;;;;;;;;;;;;;;-142.75;100.00;78399.44;5035171;28;19914;-69
2022/09/22 03:10:16;;;;;;;;;;;;;;;-142.75;100.00;78411.25;5035224;28;19917;-69
2022/09/22 03:12:42;;;;;;;;;;;;;;;-142.75;100.00;78409.28;5032813;28;19928;-70
2022/09/22 03:15:12;;;;;;;;;;;;;;;-142.75;100.00;78407.31;5025509;28;19928;-69
2022/09/22 03:17:37;;;;;;;;;;;;;;;-142.75;100.00;78415.19;5016952;28;19913;-69
2022/09/22 03:20:05;;;;;;;;;;;;;;;-142.75;100.00;78409.28;5034899;28;19923;-69
2022/09/22 03:22:30;;;;;;;;;;;;;;;-142.75;100.00;78393.50;5035180;28;20399;-69
2022/09/22 03:24:55;;;;;;;;;;;;;;;-142.75;100.00;78389.56;5033646;28;19956;-69
2022/09/22 03:27:20;;;;;;;;;;;;;;;-142.75;100.00;78373.81;5032947;28;19999;-69
2022/09/22 03:29:45;;;;;;;;;;;;;;;-142.75;100.00;78377.75;5033739;28;19913;-69
2022/09/22 03:32:10;;;;;;;;;;;;;;;-142.75;100.00;78387.59;5034890;28;20302;-69
2022/09/22 03:34:36;;;;;;;;;;;;;;;-142.75;100.00;78387.59;5034873;28;19917;-69
2022/09/22 03:37:01;;;;;;;;;;;;;;;-142.75;100.00;78393.50;5034481;28;19959;-69
2022/09/22 03:39:26;;;;;;;;;;;;;;;-142.75;100.00;78383.66;5033433;28;19913;-69
2022/09/22 03:41:51;;;;;;;;;;;;;;;-142.75;100.00;78381.69;5034738;28;20405;-69
2022/09/22 03:44:16;;;;;;;;;;;;;;;-142.75;100.00;78403.38;5034732;28;19967;-69
2022/09/22 03:46:42;;;;;;;;;;;;;;;-142.75;100.00;78403.38;5034304;28;19917;-69
2022/09/22 03:49:08;;;;;;;;;;;;;;;-142.75;100.00;78407.31;5034673;28;20048;-69
2022/09/22 03:51:33;;;;;;;;;;;;;;;-142.75;100.00;78415.19;5034548;28;19913;-70
2022/09/22 03:53:59;;;;;;;;;;;;;;;-142.75;100.00;78417.16;5034543;28;20363;-69
2022/09/22 03:56:24;;;;;;;;;;;;;;;-142.75;100.00;78430.94;5034441;28;19990;-69
2022/09/22 03:58:49;;;;;;;;;;;;;;;-142.75;100.00;78438.81;5034127;28;19916;-69
2022/09/22 04:01:14;;;;;;;;;;;;;;;-142.75;100.00;78448.66;5034360;28;19913;-70
2022/09/22 04:03:39;;;;;;;;;;;;;;;-142.75;100.00;78448.66;5034426;28;19955;-70
2022/09/22 04:06:05;;;;;;;;;;;;;;;-142.75;100.00;78434.88;5034390;28;19935;-69
2022/09/22 04:08:30;;;;;;;;;;;;;;;-142.75;100.00;78440.78;5033877;28;19944;-69
2022/09/22 04:10:59;;;;;;;;;;;;;;;-142.75;100.00;78456.53;5034296;28;19914;-69
2022/09/22 04:13:25;;;;;;;;;;;;;;;-142.75;100.00;78440.78;5034065;28;20288;-70
2022/09/22 04:15:50;;;;;;;;;;;;;;;-142.75;100.00;78440.78;5034156;28;19920;-70
2022/09/22 04:18:15;;;;;;;;;;;;;;;-142.75;100.00;78446.69;5033667;28;19920;-70
2022/09/22 04:20:44;;;;;;;;;;;;;;;-142.75;100.00;78448.66;5034440;28;19921;-69
2022/09/22 04:23:10;;;;;;;;;;;;;;;-142.75;100.00;78454.56;5034395;28;20283;-69
2022/09/22 04:25:36;;;;;;;;;;;;;;;-142.75;100.00;78460.47;5033929;28;20327;-69
2022/09/22 04:28:01;;;;;;;;;;;;;;;-142.75;100.00;78460.47;5033620;28;19920;-69
2022/09/22 04:30:26;;;;;;;;;;;;;;;-142.75;100.00;78460.47;5033704;28;20039;-69
2022/09/22 04:32:51;;;;;;;;;;;;;;;-142.75;100.00;78468.34;5033870;28;20326;-69
2022/09/22 04:35:17;;;;;;;;;;;;;;;-142.75;100.00;78448.66;5033714;28;20008;-69
2022/09/22 04:37:42;;;;;;;;;;;;;;;-142.75;100.00;78458.50;5033271;28;19913;-69
2022/09/22 04:40:11;;;;;;;;;;;;;;;-142.75;100.00;78470.31;5032323;28;19923;-69
2022/09/22 04:42:36;;;;;;;;;;;;;;;-142.75;100.00;78470.31;5033663;28;19913;-69
2022/09/22 04:45:01;;;;;;;;;;;;;;;-142.75;100.00;78466.38;5033489;28;19913;-69
2022/09/22 04:47:29;;;;;;;;;;;;;;;-142.75;100.00;78464.41;5033258;28;19967;-69
2022/09/22 04:49:55;;;;;;;;;;;;;;;-142.75;100.00;78474.25;5033478;28;20363;-69
2022/09/22 04:52:20;;;;;;;;;;;;;;;-142.75;100.00;78476.22;5033279;28;19913;-69
2022/09/22 04:54:46;;;;;;;;;;;;;;;-142.75;100.00;78458.50;5033389;28;19972;-69
2022/09/22 04:57:11;;;;;;;;;;;;;;;-142.75;100.00;78458.50;5033101;28;19917;-69
2022/09/22 04:59:36;;;;;;;;;;;;;;;-142.75;100.00;78472.28;5033178;28;20418;-69
2022/09/22 05:02:02;;;;;;;;;;;;;;;-142.75;100.00;78472.28;5015592;28;20006;-69
2022/09/22 05:04:27;;;;;;;;;;;;;;;-142.75;100.00;78464.41;5033239;28;19917;-69
2022/09/22 05:06:52;;;;;;;;;;;;;;;-142.75;100.00;78456.53;5015090;28;20283;-69
2022/09/22 05:09:19;;;;;;;;;;;;;;;-142.75;100.00;78456.53;5015048;28;19983;-69
2022/09/22 05:11:46;;;;;;;;;;;;;;;-142.75;100.00;78438.81;5032956;28;19913;-68
2022/09/22 05:14:11;;;;;;;;;;;;;;;-142.75;100.00;78440.78;5032854;28;19936;-69
2022/09/22 05:16:37;;;;;;;;;;;;;;;-142.75;100.00;78438.81;5032749;28;20314;-68
2022/09/22 05:19:02;;;;;;;;;;;;;;;-142.75;100.00;78436.84;5033010;28;20050;-69
2022/09/22 05:21:27;;;;;;;;;;;;;;;-142.75;100.00;78425.03;5032774;28;19963;-69
2022/09/22 05:23:54;;;;;;;;;;;;;;;-142.75;100.00;78460.47;5032951;28;19913;-69
2022/09/22 05:26:20;;;;;;;;;;;;;;;-142.75;100.00;78458.50;5032735;28;19963;-69
2022/09/22 05:28:45;;;;;;;;;;;;;;;-142.75;100.00;78460.47;5032382;28;20373;-69
2022/09/22 05:31:10;;;;;;;;;;;;;;;-142.75;100.00;78462.44;5032879;28;19913;-69
2022/09/22 05:33:35;;;;;;;;;;;;;;;-142.75;100.00;78450.63;5032677;28;19921;-69
2022/09/22 05:36:01;;;;;;;;;;;;;;;-142.75;100.00;78440.78;5032693;28;19913;-69
2022/09/22 05:38:26;;;;;;;;;;;;;;;-142.75;100.00;78448.66;5032370;28;20012;-69
2022/09/22 05:40:51;;;;;;;;;;;;;;;-142.75;100.00;78452.59;5032625;28;19947;-69
2022/09/22 05:43:16;;;;;;;;;;;;;;;-142.75;100.00;78462.44;5032359;28;20387;-69
2022/09/22 05:45:43;;;;;;;;;;;;;;;-142.75;100.00;78466.38;5032556;28;19913;-69
2022/09/22 05:48:08;;;;;;;;;;;;;;;-142.75;100.00;78456.53;5032135;28;20298;-69
2022/09/22 05:50:33;;;;;;;;;;;;;;;-142.75;100.00;78444.72;5030916;28;19917;-69
2022/09/22 05:53:02;;;;;;;;;;;;;;;-142.75;100.00;78425.03;5030738;28;19917;-69
2022/09/22 05:55:27;;;;;;;;;;;;;;;-142.75;100.00;78419.13;5012905;28;19944;-70
2022/09/22 05:57:56;;;;;;;;;;;;;;;-142.75;100.00;78409.28;5012186;28;20383;-69
2022/09/22 06:00:22;;;;;;;;;;;;;;;-142.75;100.00;78401.38;5012546;28;20371;-69
2022/09/22 06:02:47;;;;;;;;;;;;;;;-142.75;100.00;78397.44;5012605;28;19925;-69
2022/09/22 06:05:12;;;;;;;;;;;;;;;-142.75;100.00;78381.69;5012509;28;19913;-69
2022/09/22 06:07:38;;;;;;;;;;;;;;;-142.75;100.00;78375.78;5027583;28;20008;-69
2022/09/22 06:10:04;;;;;;;;;;;;;;;-142.75;100.00;78354.13;5028469;28;19949;-69
2022/09/22 06:12:29;;;;;;;;;;;;;;;-142.75;100.00;78360.03;5031768;28;19940;-69
2022/09/22 06:14:55;;;;;;;;;;;;;;;-142.75;100.00;78332.47;5032167;28;19917;-69
2022/09/22 06:17:22;;;;;;;;;;;;;;;-142.75;100.00;78314.75;5031954;28;20344;-69
2022/09/22 06:19:49;;;;;;;;;;;;;;;-142.75;100.00;78299.00;5065409;22;19939;-68
2022/09/22 06:22:14;;;;;;;;;;;;;;;-142.75;100.00;78287.16;5066096;28;20007;-68
2022/09/22 06:24:39;;;;;;;;;;;;;;;-142.75;100.00;78267.47;5057438;28;20360;-68
2022/09/22 06:27:05;;;;;;;;;;;;;;;-142.75;100.00;78267.47;5043474;28;19920;-67
2022/09/22 06:29:30;;;;;;;;;;;;;;;-142.75;100.00;78253.69;5059269;28;19965;-68
2022/09/22 06:31:55;;;;;;;;;;;;;;;-142.75;100.00;78228.09;5054613;28;19963;-68
2022/09/22 06:34:22;;;;;;;;;;;;;;;-142.75;100.00;78196.59;5055703;28;20058;-69
2022/09/22 06:36:47;;;;;;;;;;;;;;;-142.75;100.00;78190.69;5045840;28;19958;-68
2022/09/22 06:39:15;;;;;;;;;;;;;;;-142.75;100.00;78176.88;5035306;28;20003;-68
2022/09/22 06:41:40;;;;;;;;;;;;;;;-142.75;100.00;78141.44;5055507;28;20006;-68
2022/09/22 06:44:06;;;;;;;;;;;;;;;-142.75;100.00;78100.09;5037653;28;20057;-68
2022/09/22 06:46:32;;;;;;;;;;;;;;;-142.75;100.00;78066.63;5055308;28;19919;-67
2022/09/22 06:48:58;;;;;;;;;;;;;;;-142.75;100.00;78041.00;5052802;28;20290;-69
2022/09/22 06:51:25;;;;;;;;;;;;;;;-142.75;100.00;78007.53;5045673;28;19977;-67
2022/09/22 06:53:51;;;;;;;;;;;;;;;-142.75;100.00;77972.09;5044938;28;19917;-68
2022/09/22 06:56:19;;;;;;;;;;;;;;;-142.75;100.00;77956.34;5047512;28;19923;-68
2022/09/22 06:58:44;;;;;;;;;;;;;;;-142.75;100.00;77922.88;5028310;28;19912;-68
2022/09/22 07:01:10;;;;;;;;;;;;;;;-142.75;100.00;77885.44;5052199;28;20340;-68
2022/09/22 07:03:40;;;;;;;;;;;;;;;-142.75;100.00;77863.78;5051324;28;19913;-68
2022/09/22 07:06:06;;;;;;;;;;;;;;;-142.75;100.00;77822.44;5027287;28;20419;-69
2022/09/22 07:08:32;;;;;;;;;;;;;;;-142.75;100.00;77812.59;5051510;28;19920;-69
2022/09/22 07:11:00;;;;;;;;;;;;;;;-142.75;100.00;77785.03;5043027;28;19944;-69
2022/09/22 07:13:29;;;;;;;;;;;;;;;-142.75;100.00;77767.31;5040213;28;20006;-69
2022/09/22 07:16:01;;;;;;;;;;;;;;;-142.75;100.00;77739.75;5039637;28;19984;-68
2022/09/22 07:18:27;;;;;;;;;;;;;;;-142.75;100.00;77704.28;5052615;28;19929;-68
2022/09/22 07:20:59;;;;;;;;;;;;;;;-142.75;100.00;77680.66;5047094;28;20020;-68
2022/09/22 07:23:24;;;;;;;;;;;;;;;-142.75;100.00;77651.13;5039831;28;20251;-68
2022/09/22 07:25:55;;;;;;;;;;;;;;;-142.75;100.00;77631.44;5042062;28;20022;-68
2022/09/22 07:28:20;;;;;;;;;;;;;;;-142.75;100.00;77599.94;5050627;28;20385;-69
2022/09/22 07:30:46;;;;;;;;;;;;;;;-142.75;100.00;77554.66;5047032;28;19929;-66
2022/09/22 07:33:12;;;;;;;;;;;;;;;-142.75;100.00;77552.69;5039902;28;19920;-67
2022/09/22 07:35:37;;;;;;;;;;;;;;;-142.75;100.00;77523.16;5043396;28;19917;-69
2022/09/22 07:38:03;;;;;;;;;;;;;;;-142.75;100.00;77497.56;5045697;28;19936;-69
2022/09/22 07:40:28;;;;;;;;;;;;;;;-142.75;100.00;77499.53;5022139;28;19913;-68
2022/09/22 07:42:53;;;;;;;;;;;;;;;-142.75;100.00;77456.22;5016936;28;19920;-68
2022/09/22 07:45:20;;;;;;;;;;;;;;;-142.75;100.00;77460.13;5034658;28;20367;-68
2022/09/22 07:50:29;;;;;;;;;;;;;;;-142.75;100.00;77426.66;5037101;28;19971;-68
2022/09/22 07:52:55;;;;;;;;;;;;;;;-142.75;100.00;77385.31;5044084;28;19956;-68
2022/09/22 07:55:22;;;;;;;;;;;;;;;-142.75;100.00;77373.50;5053076;28;19927;-69
2022/09/22 07:57:58;;;;;;;;;;;;;;;-142.75;100.00;77355.78;5051115;28;20073;-68
2022/09/22 08:00:24;;;;;;;;;;;;;;;-142.75;100.00;77336.09;5049249;28;19940;-68
2022/09/22 08:02:54;;;;;;;;;;;;;;;-142.75;100.00;77326.25;5045501;28;19921;-69
2022/09/22 08:05:19;;;;;;;;;;;;;;;-142.75;100.00;77324.28;5051003;28;19996;-68
2022/09/22 08:07:45;;;;;;;;;;;;;;;-142.75;100.00;77320.34;5050496;28;19921;-69
2022/09/22 08:10:11;;;;;;;;;;;;;;;-142.75;100.00;77286.88;5043770;28;19967;-68
2022/09/22 08:12:38;;;;;;;;;;;;;;;-142.75;100.00;77282.94;5035512;28;20011;-68
2022/09/22 08:15:03;;;;;;;;;;;;;;;-142.75;100.00;77247.50;5048648;28;19920;-68
2022/09/22 08:17:30;;;;;;;;;;;;;;;-142.75;100.00;77206.16;5042470;28;20296;-67
2022/09/22 08:19:55;;;;;;;;;;;;;;;-142.75;100.00;77196.31;5045768;28;19964;-69
2022/09/22 08:22:21;;;;;;;;;;;;;;;-142.75;100.00;77164.81;5047724;28;19917;-67
2022/09/22 08:24:46;;;;;;;;;;;;;;;-142.75;100.00;77156.94;5042777;28;19913;-69
2022/09/22 08:27:11;;;;;;;;;;;;;;;-142.75;100.00;77143.16;5027284;28;19912;-68
2022/09/22 08:29:36;;;;;;;;;;;;;;;-142.75;100.00;77151.03;5035264;28;19916;-69
2022/09/22 08:32:01;;;;;;;;;;;;;;;-142.75;100.00;77143.16;5053682;28;19913;-69
2022/09/22 08:34:27;;;;;;;;;;;;;;;-142.75;100.00;77125.44;5053702;28;19923;-69
2022/09/22 08:36:52;;;;;;;;;;;;;;;-142.75;100.00;77105.75;5035287;28;19913;-69
2022/09/22 08:39:18;;;;;;;;;;;;;;;-142.75;100.00;77080.16;5053383;28;19912;-66
2022/09/22 08:41:55;;;;;;;;;;;;;;;-142.75;100.00;77090.00;5053519;28;20340;-64
2022/09/22 08:44:23;;;;;;;;;;;;;;;-142.75;100.00;77042.75;5052786;28;20374;-69
2022/09/22 08:46:48;;;;;;;;;;;;;;;-142.75;100.00;77030.94;5051944;28;19913;-69
2022/09/22 08:52:03;;;;;;;;;;;;;;;-142.75;100.00;76985.66;5052912;28;19920;-69
2022/09/22 08:54:34;;;;;;;;;;;;;;;-142.75;100.00;76960.06;5053208;28;19964;-69
2022/09/22 08:57:23;;;;;;;;;;;;;;;-142.75;100.00;76991.56;5035128;28;20378;-69
2022/09/22 08:59:52;;;;;;;;;;;;;;;-142.75;100.00;76940.38;5035168;28;19927;-69
2022/09/22 09:02:31;;;;;;;;;;;;;;;-142.75;100.00;76938.41;5053079;28;19991;-69
2022/09/22 09:05:06;;;;;;;;;;;;;;;-142.75;100.00;76910.84;5053125;28;19912;-69
2022/09/22 09:07:31;;;;;;;;;;;;;;;-142.75;100.00;76885.25;5052700;28;20007;-68
2022/09/22 09:09:57;;;;;;;;;;;;;;;-142.75;100.00;76875.41;5052958;28;19988;-69
2022/09/22 09:12:46;;;;;;;;;;;;;;;-142.75;100.00;76838.00;5052893;28;19913;-69
2022/09/22 09:15:18;;;;;;;;;;;;;;;-142.75;100.00;76830.13;5035012;28;19936;-69
2022/09/22 09:17:44;;;;;;;;;;;;;;;-142.75;100.00;76812.41;5034612;28;19913;-66
2022/09/22 09:20:18;;;;;;;;;;;;;;;-142.75;100.00;76796.69;5052611;28;20023;-67
2022/09/22 09:22:54;;;;;;;;;;;;;;;-142.75;100.00;76786.84;5034844;28;19971;-69
2022/09/22 09:25:23;;;;;;;;;;;;;;;-142.75;96.07;76767.16;5034810;28;19919;-69
2022/09/22 09:28:09;;;;;;;;;;;;;;;-142.75;93.67;76763.22;5052487;28;20393;-69
2022/09/22 09:30:40;;;;;;;;;;;;;;;-142.75;93.06;76747.47;5051935;28;19917;-68
2022/09/22 09:33:13;;;;;;;;;;;;;;;-142.75;89.51;76743.53;5052535;28;19921;-69
2022/09/22 09:35:47;;;;;;;;;;;;;;;-142.75;90.64;76715.97;5052587;28;20329;-68
2022/09/22 09:38:16;;;;;;;;;;;;;;;-142.75;87.76;76710.06;5052172;28;19912;-69
2022/09/22 09:40:48;;;;;;;;;;;;;;;-142.75;83.92;76666.75;5052238;28;19944;-68
2022/09/22 09:43:14;;;;;;;;;;;;;;;-142.75;81.60;76662.81;5052515;28;19912;-68
2022/09/22 09:45:50;;;;;;;;;;;;;;;-142.75;79.74;76664.78;5052385;28;19917;-69
2022/09/22 09:48:32;;;;;;;;;;;;;;;-142.75;81.10;76651.00;5034167;28;20291;-69
2022/09/22 09:51:02;;;;;;;;;;;;;;;-142.75;78.69;76692.34;5052329;28;20393;-67
2022/09/22 09:53:33;;;;;;;;;;;;;;;-142.75;79.63;76652.97;5052216;28;20617;-69
2022/09/22 09:55:58;;;;;;;;;;;;;;;-142.75;81.20;76629.34;5052039;28;20495;-68
2022/09/22 10:01:11;;;;;;;;;;;;;;;-142.75;75.10;76605.72;5052191;28;19920;-69
2022/09/22 10:03:41;;;;;;;;;;;;;;;-142.75;74.60;76605.72;5052077;28;19920;-69
2022/09/22 10:06:09;;;;;;;;;;;;;;;-142.75;74.72;76570.28;5052147;28;19979;-68
2022/09/22 10:08:42;;;;;;;;;;;;;;;-142.75;75.63;76554.53;5051717;28;19912;-69
2022/09/22 10:11:10;;;;;;;;;;;;;;;-142.75;75.64;76519.13;5052067;28;19917;-69
2022/09/22 10:13:39;;;;;;;;;;;;;;;-142.75;71.04;76503.38;5052101;28;19916;-68
2022/09/22 10:16:23;;;;;;;;;;;;;;;-142.75;67.53;76519.13;5051936;28;20345;-69
2022/09/22 10:18:50;;;;;;;;;;;;;;;-142.75;69.46;76572.25;5051599;28;20004;-68
2022/09/22 10:21:22;;;;;;;;;;;;;;;-142.75;67.20;76586.03;5052004;28;19917;-69
2022/09/22 10:23:48;;;;;;;;;;;;;;;-142.75;67.23;76591.94;5034121;28;19935;-68
2022/09/22 10:26:28;;;;;;;;;;;;;;;-142.75;69.67;76574.22;5051962;28;20278;-69
2022/09/22 10:29:11;;;;;;;;;;;;;;;-142.75;66.95;76530.91;5051599;28;20015;-69
2022/09/22 10:31:37;;;;;;;;;;;;;;;-142.75;65.61;76538.78;5051921;28;19919;-69
2022/09/22 10:34:04;;;;;;;;;;;;;;;-142.75;66.24;76552.56;5051767;28;20445;-67
2022/09/22 10:36:32;;;;;;;;;;;;;;;-142.75;67.16;76566.34;5033967;28;19963;-69
2022/09/22 10:38:57;;;;;;;;;;;;;;;-142.75;66.71;76588.00;5051705;28;19983;-69
2022/09/22 10:41:27;;;;;;;;;;;;;;;-142.75;69.54;76595.88;5051707;28;20391;-69
2022/09/22 10:43:54;;;;;;;;;;;;;;;-142.75;66.97;76554.53;5051726;28;19920;-68
2022/09/22 10:46:38;;;;;;;;;;;;;;;-142.75;66.93;76554.53;5033814;28;20465;-69
2022/09/22 10:49:14;;;;;;;;;;;;;;;-142.75;68.06;76511.25;5051668;28;19913;-66
2022/09/22 10:51:39;;;;;;;;;;;;;;;-142.75;66.53;76521.09;5051924;28;20326;-69
2022/09/22 10:54:23;;;;;;;;;;;;;;;-142.75;68.12;76566.34;5051651;28;19952;-69
2022/09/22 10:56:52;;;;;;;;;;;;;;;-142.75;68.45;76515.19;5033491;28;19917;-69
2022/09/22 10:59:35;;;;;;;;;;;;;;;-142.75;67.75;76523.06;5033681;28;20340;-68
2022/09/22 11:02:19;;;;;;;;;;;;;;;-142.75;67.59;76519.13;5051615;28;20275;-69
2022/09/22 11:04:50;;;;;;;;;;;;;;;-142.75;67.06;76503.38;5051582;28;19912;-69
2022/09/22 11:13:41;;;;;;;;;;;;;;;-142.75;67.15;76452.19;4974100;28;19918;-69
2022/09/22 11:16:06;;;;;;;;;;;;;;;-142.75;65.58;76436.44;4954570;29;19919;-69
2022/09/22 11:18:37;;;;;;;;;;;;;;;-142.75;66.58;76479.75;5033338;28;20287;-69
2022/09/22 11:21:31;;;;;;;;;;;;;;;-142.75;63.42;76460.06;5054988;28;19917;-69
2022/09/22 11:23:57;;;;;;;;;;;;;;;-142.75;65.21;76460.06;5037216;28;19913;-69
2022/09/22 11:26:57;;;;;;;;;;;;;;;-142.75;63.58;76452.19;5036988;28;19935;-70
2022/09/22 11:29:43;;;;;;;;;;;;;;;-142.75;63.90;76397.06;4973422;28;20046;-69
2022/09/22 11:32:21;;;;;;;;;;;;;;;-142.75;65.76;76379.34;5049062;28;19920;-69
2022/09/22 11:34:52;;;;;;;;;;;;;;;-142.75;63.37;76410.84;5054746;28;19917;-68
2022/09/22 11:37:25;;;;;;;;;;;;;;;-142.75;60.84;76399.03;5054522;28;19928;-68
2022/09/22 11:40:06;;;;;;;;;;;;;;;-142.75;60.72;76460.06;5054645;28;19926;-68
2022/09/22 11:42:40;;;;;;;;;;;;;;;-142.75;58.71;76434.47;5054632;28;19948;-69
2022/09/22 11:45:27;;;;;;;;;;;;;;;-142.75;63.49;76412.81;5054591;28;20398;-68
2022/09/22 11:48:07;;;;;;;;;;;;;;;-142.75;61.90;76385.25;5054149;28;19913;-69
2022/09/22 11:50:33;;;;;;;;;;;;;;;-142.75;62.76;76369.50;5054455;28;19913;-69
2022/09/22 11:53:15;;;;;;;;;;;;;;;-142.75;60.23;76373.44;5036586;28;20485;-69
2022/09/22 11:55:59;;;;;;;;;;;;;;;-142.75;58.73;76448.25;5054334;28;19924;-69
2022/09/22 11:58:26;;;;;;;;;;;;;;;-142.75;61.59;76414.78;5053898;28;19919;-69
2022/09/22 12:00:55;;;;;;;;;;;;;;;-142.75;59.79;76436.44;5054188;28;19913;-69
2022/09/22 12:03:31;;;;;;;;;;;;;;;-142.75;60.88;76523.06;5054434;28;20001;-69
2022/09/22 12:06:01;;;;;;;;;;;;;;;-142.75;58.15;76471.88;5054202;28;19974;-69
2022/09/22 12:08:35;;;;;;;;;;;;;;;-142.75;61.14;76458.09;5053754;28;20263;-69
2022/09/22 12:11:04;;;;;;;;;;;;;;;-142.75;62.39;76402.97;5035979;28;19943;-68
2022/09/22 12:13:30;;;;;;;;;;;;;;;-142.75;66.73;76418.72;5035834;28;19913;-68
2022/09/22 12:16:17;;;;;;;;;;;;;;;-142.75;62.75;76408.88;5053565;28;19925;-66
2022/09/22 12:18:55;;;;;;;;;;;;;;;-142.75;59.11;76397.06;5053211;28;19913;-70
2022/09/22 12:21:39;;;;;;;;;;;;;;;-142.75;59.00;76430.53;5102463;22;20015;-67
2022/09/22 12:24:08;;;;;;;;;;;;;;;-142.75;62.45;76473.84;5092283;28;20342;-67
2022/09/22 12:26:34;;;;;;;;;;;;;;;-142.75;63.67;76528.97;5092084;28;19919;-67
2022/09/22 12:29:00;;;;;;;;;;;;;;;-142.75;63.39;76582.09;5094108;28;20576;-67
2022/09/22 12:31:36;;;;;;;;;;;;;;;-142.75;65.23;76593.91;5093743;28;19947;-67
2022/09/22 12:34:02;;;;;;;;;;;;;;;-142.75;65.03;76538.78;5093808;28;19918;-67
2022/09/22 12:36:30;;;;;;;;;;;;;;;-142.75;62.05;76473.84;5093602;28;19982;-67
2022/09/22 12:39:10;;;;;;;;;;;;;;;-142.75;62.81;76452.19;5093598;28;20344;-67
2022/09/22 12:41:51;;;;;;;;;;;;;;;-142.75;65.04;76410.84;5093580;28;19940;-67
2022/09/22 12:44:24;;;;;;;;;;;;;;;-142.75;61.50;76345.91;5093702;28;20057;-67